createdAt,value
2022-10-25T00:18:30.389Z,21.0
2022-10-25T00:48:30.390Z,21.0
2022-10-25T01:18:30.408Z,20.9
2022-10-25T01:48:30.358Z,20.9
2022-10-25T02:18:30.384Z,20.8
2022-10-25T02:48:30.361Z,20.8
2022-10-25T03:18:30.364Z,20.8
2022-10-25T03:48:30.386Z,20.8
2022-10-25T04:18:30.353Z,20.7
2022-10-25T04:48:30.378Z,20.8
2022-10-25T05:18:30.367Z,20.7
2022-10-25T05:48:30.061Z,20.7
2022-10-25T06:18:30.356Z,20.9
2022-10-25T06:48:31.009Z,21.0
2022-10-25T07:18:30.387Z,21.1
2022-10-25T07:48:30.348Z,21.2
2022-10-25T08:18:30.466Z,21.3
2022-10-25T08:48:30.376Z,21.4
2022-10-25T09:18:30.392Z,21.4
2022-10-25T09:48:30.465Z,21.5
2022-10-25T10:18:30.355Z,21.5
2022-10-25T10:48:30.414Z,21.5
2022-10-25T11:18:30.394Z,21.5
2022-10-25T11:48:30.354Z,21.5
2022-10-25T12:18:30.331Z,21.5
2022-10-25T12:48:30.356Z,21.5
2022-10-25T13:18:30.376Z,21.6
2022-10-25T13:48:30.406Z,21.6
2022-10-25T14:18:30.338Z,21.7
2022-10-25T14:48:30.339Z,21.6
2022-10-25T15:18:30.353Z,21.7
2022-10-25T15:48:30.465Z,21.8
2022-10-25T16:18:30.316Z,21.7
2022-10-25T16:48:30.324Z,21.6
2022-10-25T17:18:30.339Z,21.6
2022-10-25T17:48:30.343Z,21.5
2022-10-25T18:18:30.327Z,21.5
2022-10-25T18:48:30.345Z,21.4
2022-10-25T19:18:30.334Z,21.3
2022-10-25T19:48:30.329Z,21.3
2022-10-25T20:18:30.295Z,21.3
2022-10-25T20:48:30.293Z,21.2
2022-10-25T21:18:30.312Z,21.2
2022-10-25T21:48:30.311Z,21.1
2022-10-25T22:18:30.406Z,21.1
2022-10-25T23:18:30.313Z,21.0
2022-10-25T23:48:30.365Z,21.0
